Terminal Aerodrome Forecast
Issued by NWS

Home | Current Version | Previous Version | Text Only | Print | Product List | Glossary On
Versions: 1 2 3 4 5 6 7 8 9 10 11 12 13 14 15 16 17
000
FTAK31 PANC 251815 AAA
TAFADL
TAF AMD
PADL 251815Z 2518/2618 18015G25KT P6SM -SHRA SCT015 BKN025 OVC035
     FM260500 17008KT P6SM VCSH SCT025 BKN035
     FM261000 15005KT P6SM SCT025 OVC050=

USA.gov is the U.S. government's official web portal to all federal, state and local government web resources and services.